createdAt,value
2022-10-19T00:01:07.554Z,13.17
2022-10-19T00:03:34.785Z,12.87
2022-10-19T00:06:09.863Z,12.13
2022-10-19T00:08:36.616Z,12.47
2022-10-19T00:11:03.390Z,11.80
2022-10-19T00:13:30.170Z,11.50
2022-10-19T00:15:56.931Z,11.03
2022-10-19T00:18:25.780Z,10.47
2022-10-19T00:20:52.688Z,10.90
2022-10-19T00:23:21.024Z,10.07
2022-10-19T00:25:57.405Z,8.97
2022-10-19T00:28:26.544Z,9.07
2022-10-19T00:30:55.597Z,8.97
2022-10-19T00:33:24.592Z,8.67
2022-10-19T00:35:56.450Z,9.20
2022-10-19T00:38:23.206Z,8.67
2022-10-19T00:40:50.024Z,9.00
2022-10-19T00:43:22.025Z,8.33
2022-10-19T00:45:48.876Z,8.37
2022-10-19T00:48:42.892Z,7.70
2022-10-19T00:51:09.691Z,8.07
2022-10-19T00:53:36.600Z,8.83
2022-10-19T00:56:05.502Z,9.33
2022-10-19T00:58:32.396Z,10.37
2022-10-19T01:01:03.433Z,10.93
2022-10-19T01:03:30.343Z,11.93
2022-10-19T01:05:57.071Z,11.77
2022-10-19T01:08:23.871Z,11.63
2022-10-19T01:11:02.058Z,11.67
2022-10-19T01:14:05.022Z,11.40
2022-10-19T01:16:46.758Z,11.00
2022-10-19T01:19:31.552Z,12.57
2022-10-19T01:22:12.596Z,11.97
2022-10-19T01:25:17.415Z,12.57
2022-10-19T01:27:55.621Z,11.37
2022-10-19T01:30:37.431Z,10.87
2022-10-19T01:33:10.113Z,11.27
2022-10-19T01:35:43.293Z,12.10
2022-10-19T01:38:20.098Z,11.30
2022-10-19T01:40:49.876Z,11.10
2022-10-19T01:43:29.710Z,10.33
2022-10-19T01:46:09.858Z,9.87
2022-10-19T01:48:39.733Z,9.87
2022-10-19T01:51:09.557Z,9.87
2022-10-19T01:53:42.797Z,9.87
2022-10-19T01:56:09.753Z,9.43
2022-10-19T01:58:37.465Z,9.27
2022-10-19T02:01:05.719Z,9.60
2022-10-19T02:03:34.045Z,9.37
2022-10-19T02:06:00.936Z,9.77
2022-10-19T02:08:39.310Z,9.50
2022-10-19T02:11:06.166Z,9.70
2022-10-19T02:13:37.998Z,9.37
2022-10-19T02:16:10.288Z,9.87
2022-10-19T02:18:39.598Z,10.57
2022-10-19T02:21:06.514Z,10.23
2022-10-19T02:23:36.145Z,10.40
2022-10-19T02:26:02.972Z,10.70
2022-10-19T02:28:29.931Z,11.20
2022-10-19T02:30:57.102Z,10.73
2022-10-19T02:33:23.991Z,11.03
2022-10-19T02:35:50.815Z,10.87
2022-10-19T02:38:20.056Z,11.33
2022-10-19T02:41:01.052Z,11.10
2022-10-19T02:43:27.889Z,11.33
2022-10-19T02:46:01.920Z,12.40
2022-10-19T02:48:29.750Z,10.67
2022-10-19T02:50:58.735Z,11.47
2022-10-19T02:53:28.186Z,11.27
2022-10-19T02:55:54.958Z,11.70
2022-10-19T02:58:21.744Z,11.63
2022-10-19T03:00:48.558Z,11.80
2022-10-19T03:03:17.846Z,12.07
2022-10-19T03:05:44.673Z,11.83
2022-10-19T03:08:11.417Z,12.30
2022-10-19T03:10:38.210Z,11.97
2022-10-19T03:13:05.174Z,12.17
2022-10-19T03:15:31.980Z,11.37
2022-10-19T03:17:58.769Z,13.00
2022-10-19T03:20:28.170Z,11.40
2022-10-19T03:22:54.977Z,12.10
2022-10-19T03:25:24.052Z,11.43
2022-10-19T03:27:50.870Z,12.13
2022-10-19T03:30:19.853Z,11.20
2022-10-19T03:32:48.858Z,11.70
2022-10-19T03:35:15.728Z,11.60
2022-10-19T03:37:42.500Z,11.43
2022-10-19T03:40:09.845Z,11.60
2022-10-19T03:42:36.630Z,10.20
2022-10-19T03:45:03.795Z,10.77
2022-10-19T03:47:33.070Z,10.80
2022-10-19T03:50:00.155Z,10.87
2022-10-19T03:52:26.942Z,11.00
2022-10-19T03:54:56.157Z,10.87
2022-10-19T03:57:22.926Z,10.83
2022-10-19T03:59:49.739Z,10.60
2022-10-19T04:02:18.656Z,10.73
2022-10-19T04:04:45.389Z,9.93
2022-10-19T04:07:14.684Z,10.33
2022-10-19T04:09:43.680Z,10.10
2022-10-19T04:12:10.464Z,10.53
2022-10-19T04:14:52.586Z,11.13
2022-10-19T04:17:23.475Z,10.53
2022-10-19T04:19:50.242Z,9.53
2022-10-19T04:22:16.974Z,10.70
2022-10-19T04:24:43.748Z,9.97
2022-10-19T04:27:12.895Z,9.83
2022-10-19T04:29:39.738Z,9.40
2022-10-19T04:32:06.608Z,9.07
2022-10-19T04:34:35.277Z,8.97
2022-10-19T04:37:04.520Z,8.97
2022-10-19T04:39:31.301Z,9.07
2022-10-19T04:41:58.155Z,9.43
2022-10-19T04:44:24.915Z,8.13
2022-10-19T04:46:51.787Z,8.17
2022-10-19T04:49:20.919Z,8.57
2022-10-19T04:51:50.054Z,8.67
2022-10-19T04:54:21.396Z,7.77
2022-10-19T04:56:48.168Z,8.07
2022-10-19T04:59:17.340Z,7.43
2022-10-19T05:01:46.492Z,7.77
2022-10-19T05:04:14.169Z,7.50
2022-10-19T05:06:40.902Z,7.40
2022-10-19T05:09:07.755Z,7.87
2022-10-19T05:11:34.544Z,7.00
2022-10-19T05:14:01.366Z,7.50
2022-10-19T05:16:28.205Z,7.50
2022-10-19T05:18:59.725Z,7.53
2022-10-19T05:21:29.468Z,7.27
2022-10-19T05:23:56.412Z,7.37
2022-10-19T05:26:24.462Z,7.40
2022-10-19T05:28:56.899Z,7.27
2022-10-19T05:31:27.767Z,6.40
2022-10-19T05:33:56.531Z,6.93
2022-10-19T05:36:36.975Z,7.73
2022-10-19T05:39:13.258Z,6.90
2022-10-19T05:41:42.984Z,6.60
2022-10-19T05:44:15.012Z,6.67
2022-10-19T05:46:41.872Z,6.23
2022-10-19T05:49:09.771Z,5.70
2022-10-19T05:51:38.724Z,5.93
2022-10-19T05:54:05.760Z,5.57
2022-10-19T05:56:34.793Z,6.07
2022-10-19T05:59:03.849Z,6.23
2022-10-19T06:01:30.672Z,5.93
2022-10-19T06:03:58.280Z,5.63
2022-10-19T06:06:27.696Z,5.60
2022-10-19T06:08:57.307Z,5.87
2022-10-19T06:11:27.865Z,5.73
2022-10-19T06:13:55.732Z,5.43
2022-10-19T06:16:24.036Z,5.13
2022-10-19T06:18:50.827Z,5.60
2022-10-19T06:21:19.878Z,5.63
2022-10-19T06:23:53.328Z,5.63
2022-10-19T06:26:20.625Z,6.30
2022-10-19T06:28:52.380Z,5.77
2022-10-19T06:31:19.187Z,5.07
2022-10-19T06:33:49.493Z,5.50
2022-10-19T06:36:23.706Z,5.10
2022-10-19T06:38:50.754Z,5.90
2022-10-19T06:41:17.565Z,5.80
2022-10-19T06:43:44.549Z,5.50
2022-10-19T06:46:15.594Z,5.33
2022-10-19T06:48:42.367Z,5.00
2022-10-19T06:51:09.264Z,5.67
2022-10-19T06:53:36.244Z,6.30
2022-10-19T06:56:07.106Z,5.80
2022-10-19T06:58:37.716Z,5.80
2022-10-19T07:01:04.887Z,5.80
2022-10-19T07:03:31.714Z,6.07
2022-10-19T07:06:02.105Z,6.63
2022-10-19T07:08:30.001Z,6.00
2022-10-19T07:11:02.121Z,6.07
2022-10-19T07:13:29.072Z,5.70
2022-10-19T07:16:06.876Z,5.17
2022-10-19T07:18:41.927Z,5.43
2022-10-19T07:21:10.931Z,5.00
2022-10-19T07:23:41.011Z,4.63
2022-10-19T07:26:26.421Z,5.60
2022-10-19T07:28:53.521Z,4.90
2022-10-19T07:31:24.289Z,4.47
2022-10-19T07:34:01.494Z,4.97
2022-10-19T07:36:29.134Z,3.90
2022-10-19T07:38:55.971Z,3.80
2022-10-19T07:41:24.190Z,4.00
2022-10-19T07:43:51.252Z,3.90
2022-10-19T07:46:21.845Z,4.30
2022-10-19T07:48:48.782Z,3.37
2022-10-19T07:51:16.353Z,3.40
2022-10-19T07:53:45.772Z,3.03
2022-10-19T07:56:14.145Z,3.67
2022-10-19T07:58:46.016Z,3.87
2022-10-19T08:01:15.475Z,3.90
2022-10-19T08:04:48.613Z,3.67
2022-10-19T08:06:31.973Z,3.87
2022-10-19T08:08:58.855Z,4.10
2022-10-19T08:11:26.741Z,4.10
2022-10-19T08:13:58.650Z,3.80
2022-10-19T08:16:32.849Z,4.33
2022-10-19T08:19:04.122Z,3.90
2022-10-19T08:21:31.125Z,3.80
2022-10-19T08:23:57.999Z,4.53
2022-10-19T08:26:25.068Z,3.60
2022-10-19T08:28:58.645Z,4.50
2022-10-19T08:31:27.578Z,4.40
2022-10-19T08:33:54.341Z,3.83
2022-10-19T08:36:21.559Z,4.40
2022-10-19T08:38:48.994Z,4.70
2022-10-19T08:41:35.979Z,3.83
2022-10-19T08:44:36.415Z,4.53
2022-10-19T08:47:11.912Z,4.07
2022-10-19T08:49:43.709Z,5.37
2022-10-19T08:52:32.025Z,5.57
2022-10-19T08:55:07.246Z,4.43
2022-10-19T08:57:37.412Z,4.73
2022-10-19T09:00:13.263Z,4.90
2022-10-19T09:03:03.637Z,4.33
2022-10-19T09:05:50.785Z,4.50
2022-10-19T09:08:17.955Z,4.30
2022-10-19T09:10:46.174Z,4.40
2022-10-19T09:13:36.456Z,3.93
2022-10-19T09:16:15.239Z,4.17
2022-10-19T09:18:47.003Z,4.00
2022-10-19T09:21:21.554Z,4.00
2022-10-19T09:24:04.530Z,3.40
2022-10-19T09:26:36.835Z,3.80
2022-10-19T09:29:26.575Z,3.80
2022-10-19T09:34:38.442Z,3.63
2022-10-19T09:37:05.307Z,3.27
2022-10-19T09:39:32.372Z,3.20
2022-10-19T09:42:15.568Z,3.10
2022-10-19T09:44:42.424Z,3.07
2022-10-19T09:47:37.352Z,3.70
2022-10-19T09:50:19.123Z,3.03
2022-10-19T09:52:47.168Z,3.30
2022-10-19T09:55:13.906Z,3.20
2022-10-19T09:57:44.468Z,2.93
2022-10-19T10:00:27.187Z,3.73
2022-10-19T10:02:55.440Z,3.87
2022-10-19T10:05:34.413Z,3.57
2022-10-19T10:08:01.283Z,2.60
2022-10-19T10:10:34.652Z,3.17
2022-10-19T10:13:01.378Z,2.43
2022-10-19T10:15:29.966Z,1.20
2022-10-19T10:17:56.754Z,0.80
2022-10-19T10:20:30.368Z,0.80
2022-10-19T10:23:02.982Z,0.73
2022-10-19T10:25:35.184Z,0.73
2022-10-19T10:28:19.455Z,1.07
2022-10-19T10:30:46.827Z,0.70
2022-10-19T10:33:26.957Z,1.20
2022-10-19T10:36:05.697Z,1.20
2022-10-19T10:38:34.632Z,0.90
2022-10-19T10:41:04.105Z,1.00
2022-10-19T10:43:37.699Z,1.10
2022-10-19T10:46:25.777Z,0.73
2022-10-19T10:48:57.404Z,1.20
2022-10-19T10:51:35.024Z,0.80
2022-10-19T10:54:28.066Z,1.00
2022-10-19T10:57:16.863Z,1.30
2022-10-19T10:59:51.989Z,1.50
2022-10-19T11:02:21.585Z,1.37
2022-10-19T11:04:54.741Z,1.70
2022-10-19T11:07:23.816Z,1.40
2022-10-19T11:09:56.939Z,1.10
2022-10-19T11:12:47.655Z,1.23
2022-10-19T11:18:05.612Z,0.73
2022-10-19T11:20:34.864Z,1.03
2022-10-19T11:23:28.052Z,1.00
2022-10-19T11:26:03.058Z,1.03
2022-10-19T11:28:44.292Z,1.23
2022-10-19T11:31:45.908Z,1.20
2022-10-19T11:35:11.562Z,1.30
2022-10-19T11:38:17.335Z,0.90
2022-10-19T11:43:53.688Z,1.00
2022-10-19T11:47:02.767Z,1.43
2022-10-19T11:49:44.722Z,2.17
2022-10-19T11:52:15.733Z,0.80
2022-10-19T11:55:03.566Z,1.20
2022-10-19T11:58:15.099Z,1.33
2022-10-19T12:00:47.111Z,1.10
2022-10-19T12:03:29.635Z,1.00
2022-10-19T12:05:59.387Z,1.10
2022-10-19T12:08:37.860Z,0.90
2022-10-19T12:11:23.646Z,0.87
2022-10-19T12:13:56.666Z,1.07
2022-10-19T12:16:28.495Z,0.93
2022-10-19T12:18:56.020Z,0.90
2022-10-19T12:21:29.991Z,1.07
2022-10-19T12:24:00.595Z,1.10
2022-10-19T12:26:28.011Z,1.17
2022-10-19T12:28:57.753Z,1.00
2022-10-19T12:31:27.028Z,0.90
2022-10-19T12:33:53.789Z,0.77
2022-10-19T12:36:39.238Z,0.70
2022-10-19T12:39:08.145Z,0.83
2022-10-19T12:41:56.676Z,0.70
2022-10-19T12:44:45.915Z,0.80
2022-10-19T12:47:17.775Z,1.10
2022-10-19T12:49:48.975Z,1.00
2022-10-19T12:52:35.913Z,1.10
2022-10-19T12:55:15.860Z,0.90
2022-10-19T12:57:48.346Z,0.90
2022-10-19T13:00:24.998Z,1.00
2022-10-19T13:03:24.027Z,0.70
2022-10-19T13:06:02.968Z,0.80
2022-10-19T13:08:32.745Z,0.87
2022-10-19T13:11:14.678Z,0.70
2022-10-19T13:14:01.770Z,0.77
2022-10-19T13:16:30.650Z,0.90
2022-10-19T13:19:01.745Z,1.20
2022-10-19T13:21:54.365Z,1.40
2022-10-19T13:24:24.148Z,0.90
2022-10-19T13:27:02.961Z,0.90
2022-10-19T13:29:29.759Z,0.90
2022-10-19T13:31:58.728Z,0.80
2022-10-19T13:34:27.941Z,0.87
2022-10-19T13:37:01.806Z,0.83
2022-10-19T13:39:28.552Z,0.70
2022-10-19T13:41:56.441Z,0.80
2022-10-19T13:44:27.991Z,0.97
2022-10-19T13:47:03.381Z,0.83
2022-10-19T13:49:51.002Z,1.10
2022-10-19T13:52:26.734Z,0.80
2022-10-19T13:55:12.172Z,0.80
2022-10-19T13:58:21.885Z,0.70
2022-10-19T14:01:17.063Z,0.90
2022-10-19T14:03:53.254Z,0.70
2022-10-19T14:06:44.338Z,0.70
2022-10-19T14:09:32.377Z,0.80
2022-10-19T14:12:14.248Z,0.57
2022-10-19T14:19:54.419Z,0.90
2022-10-19T14:22:25.189Z,0.70
2022-10-19T14:24:52.173Z,0.80
2022-10-19T14:27:23.247Z,1.00
2022-10-19T14:29:51.477Z,1.00
2022-10-19T14:32:23.088Z,1.00
2022-10-19T14:34:52.459Z,0.90
2022-10-19T14:37:24.551Z,0.90
2022-10-19T14:40:01.814Z,1.03
2022-10-19T14:42:44.181Z,1.20
2022-10-19T14:45:18.639Z,1.30
2022-10-19T14:48:01.643Z,1.33
2022-10-19T14:50:34.486Z,1.30
2022-10-19T14:53:26.762Z,1.00
2022-10-19T14:55:55.531Z,1.30
2022-10-19T14:58:22.786Z,0.97
2022-10-19T15:00:49.886Z,0.93
2022-10-19T15:03:24.454Z,1.10
2022-10-19T15:05:54.613Z,0.83
2022-10-19T15:08:33.998Z,0.90
2022-10-19T15:11:02.992Z,1.20
2022-10-19T15:13:35.388Z,1.00
2022-10-19T15:16:04.427Z,1.20
2022-10-19T15:18:48.778Z,1.40
2022-10-19T15:21:19.442Z,1.10
2022-10-19T15:23:54.862Z,1.03
2022-10-19T15:26:30.170Z,1.27
2022-10-19T15:29:08.384Z,1.60
2022-10-19T15:31:35.202Z,1.13
2022-10-19T15:34:02.413Z,1.10
2022-10-19T15:36:30.053Z,1.17
2022-10-19T15:39:24.649Z,1.10
2022-10-19T15:41:50.790Z,1.30
2022-10-19T15:44:31.254Z,1.40
2022-10-19T15:47:16.407Z,1.50
2022-10-19T15:49:43.349Z,1.10
2022-10-19T15:52:26.928Z,1.30
2022-10-19T15:54:55.174Z,1.53
2022-10-19T15:57:31.675Z,1.20
2022-10-19T16:00:07.986Z,1.00
2022-10-19T16:02:34.854Z,1.30
2022-10-19T16:05:01.658Z,1.53
2022-10-19T16:07:30.629Z,1.27
2022-10-19T16:09:57.551Z,1.30
2022-10-19T16:12:29.405Z,1.40
2022-10-19T16:14:58.350Z,1.40
2022-10-19T16:17:25.131Z,1.33
2022-10-19T16:19:51.874Z,1.20
2022-10-19T16:22:20.751Z,1.23
2022-10-19T16:24:47.538Z,1.10
2022-10-19T16:27:16.197Z,1.20
2022-10-19T16:29:44.224Z,1.60
2022-10-19T16:32:11.012Z,1.23
2022-10-19T16:34:38.086Z,1.90
2022-10-19T16:37:06.911Z,1.80
2022-10-19T16:39:34.479Z,1.30
2022-10-19T16:42:03.826Z,1.50
2022-10-19T16:44:30.602Z,1.60
2022-10-19T16:46:57.487Z,1.80
2022-10-19T16:49:24.359Z,1.63
2022-10-19T16:51:54.695Z,1.53
2022-10-19T16:54:24.522Z,1.70
2022-10-19T16:56:51.253Z,1.87
2022-10-19T16:59:18.705Z,1.90
2022-10-19T17:01:48.359Z,2.10
2022-10-19T17:04:15.627Z,2.20
2022-10-19T17:06:42.522Z,2.03
2022-10-19T17:11:56.016Z,2.03
2022-10-19T17:14:22.821Z,1.90
2022-10-19T17:16:49.628Z,2.00
2022-10-19T17:19:16.486Z,1.87
2022-10-19T17:21:45.713Z,1.87
2022-10-19T17:24:20.127Z,1.90
2022-10-19T17:26:50.967Z,1.73
2022-10-19T17:29:18.013Z,2.10
2022-10-19T17:31:46.933Z,1.70
2022-10-19T17:34:13.948Z,1.83
2022-10-19T17:36:42.284Z,1.93
2022-10-19T17:39:11.687Z,1.70
2022-10-19T17:41:38.447Z,1.80
2022-10-19T17:44:05.349Z,2.00
2022-10-19T17:46:33.407Z,1.90
2022-10-19T17:49:00.245Z,2.07
2022-10-19T17:51:33.478Z,2.07
2022-10-19T17:54:01.925Z,2.00
2022-10-19T17:56:28.687Z,2.00
2022-10-19T17:58:56.395Z,2.37
2022-10-19T18:01:23.175Z,2.10
2022-10-19T18:03:50.244Z,2.00
2022-10-19T18:06:18.193Z,2.03
2022-10-19T18:08:47.403Z,2.37
2022-10-19T18:11:25.100Z,1.80
2022-10-19T18:13:52.387Z,1.97
2022-10-19T18:16:21.415Z,2.47
2022-10-19T18:18:51.237Z,2.30
2022-10-19T18:21:22.074Z,2.10
2022-10-19T18:23:49.030Z,1.80
2022-10-19T18:26:19.865Z,2.13
2022-10-19T18:28:46.668Z,1.90
2022-10-19T18:31:15.153Z,2.20
2022-10-19T18:33:42.033Z,1.90
2022-10-19T18:36:09.748Z,2.00
2022-10-19T18:38:39.619Z,2.13
2022-10-19T18:43:46.163Z,2.40
2022-10-19T18:46:13.192Z,2.33
2022-10-19T18:48:40.063Z,2.57
2022-10-19T18:51:07.806Z,2.37
2022-10-19T18:53:37.030Z,2.50
2022-10-19T18:56:07.320Z,2.30
2022-10-19T18:58:34.278Z,2.40
2022-10-19T19:01:06.897Z,2.67
2022-10-19T19:03:33.828Z,2.87
2022-10-19T19:06:01.707Z,3.00
2022-10-19T19:08:28.838Z,2.97
2022-10-19T19:11:01.443Z,3.40
2022-10-19T19:13:28.180Z,3.37
2022-10-19T19:16:00.615Z,3.00
2022-10-19T19:18:27.429Z,2.90
2022-10-19T19:20:54.203Z,3.10
2022-10-19T19:23:20.977Z,2.70
2022-10-19T19:25:48.127Z,2.93
2022-10-19T19:28:17.409Z,2.90
2022-10-19T19:30:45.082Z,3.20
2022-10-19T19:33:12.408Z,3.13
2022-10-19T19:35:45.089Z,3.50
2022-10-19T19:38:12.198Z,3.40
2022-10-19T19:40:40.665Z,2.83
2022-10-19T19:43:10.262Z,3.27
2022-10-19T19:45:37.284Z,2.90
2022-10-19T19:48:04.566Z,3.20
2022-10-19T19:50:34.223Z,3.10
2022-10-19T19:53:01.458Z,2.90
2022-10-19T19:55:28.594Z,3.30
2022-10-19T19:57:55.392Z,3.47
2022-10-19T20:00:22.584Z,2.73
2022-10-19T20:02:56.091Z,3.57
2022-10-19T20:05:22.954Z,2.93
2022-10-19T20:07:49.748Z,3.10
2022-10-19T20:10:16.776Z,3.17
2022-10-19T20:12:43.926Z,3.10
2022-10-19T20:15:13.695Z,2.47
2022-10-19T20:17:43.678Z,3.37
2022-10-19T20:20:13.628Z,3.20
2022-10-19T20:22:43.420Z,3.13
2022-10-19T20:25:12.656Z,2.77
2022-10-19T20:27:39.388Z,3.20
2022-10-19T20:30:06.950Z,3.23
2022-10-19T20:32:34.056Z,3.13
2022-10-19T20:35:01.148Z,3.10
2022-10-19T20:37:29.047Z,3.47
2022-10-19T20:39:55.912Z,2.87
2022-10-19T20:42:25.315Z,3.30
2022-10-19T20:44:54.677Z,3.33
2022-10-19T20:47:21.558Z,3.20
2022-10-19T20:49:48.406Z,3.03
2022-10-19T20:52:15.234Z,3.63
2022-10-19T20:54:42.080Z,3.00
2022-10-19T20:57:11.330Z,3.10
2022-10-19T20:59:39.572Z,3.20
2022-10-19T21:02:12.037Z,3.23
2022-10-19T21:04:38.911Z,2.97
2022-10-19T21:07:10.469Z,3.00
2022-10-19T21:09:37.233Z,3.20
2022-10-19T21:12:04.116Z,3.20
2022-10-19T21:14:31.360Z,3.00
2022-10-19T21:16:58.363Z,3.30
2022-10-19T21:19:25.864Z,3.33
2022-10-19T21:21:55.515Z,2.87
2022-10-19T21:24:30.716Z,3.17
2022-10-19T21:27:00.992Z,3.67
2022-10-19T21:29:27.930Z,3.30
2022-10-19T21:31:54.827Z,3.23
2022-10-19T21:34:26.188Z,2.90
2022-10-19T21:36:53.168Z,3.20
2022-10-19T21:39:20.109Z,3.77
2022-10-19T21:41:46.964Z,3.27
2022-10-19T21:44:16.801Z,3.67
2022-10-19T21:46:43.996Z,3.27
2022-10-19T21:49:16.448Z,3.47
2022-10-19T21:51:47.076Z,3.20
2022-10-19T21:54:19.060Z,3.77
2022-10-19T21:56:46.098Z,3.20
2022-10-19T21:59:15.455Z,3.10
2022-10-19T22:01:42.312Z,3.17
2022-10-19T22:04:18.027Z,2.83
2022-10-19T22:06:44.825Z,3.10
2022-10-19T22:09:17.019Z,2.83
2022-10-19T22:11:46.505Z,3.50
2022-10-19T22:14:14.067Z,3.07
2022-10-19T22:16:45.723Z,3.33
2022-10-19T22:19:17.236Z,3.03
2022-10-19T22:21:44.120Z,2.90
2022-10-19T22:24:13.221Z,2.80
2022-10-19T22:26:42.310Z,3.30
2022-10-19T22:29:09.354Z,3.60
2022-10-19T22:31:36.880Z,3.40
2022-10-19T22:34:11.727Z,3.10
2022-10-19T22:36:38.712Z,3.37
2022-10-19T22:39:07.787Z,3.53
2022-10-19T22:42:31.006Z,3.53
2022-10-19T22:45:00.216Z,3.73
2022-10-19T22:47:27.048Z,3.50
2022-10-19T22:49:53.785Z,3.80
2022-10-19T22:52:22.813Z,3.77
2022-10-19T22:54:51.240Z,3.77
2022-10-19T22:57:17.978Z,4.23
2022-10-19T22:59:44.738Z,4.00
2022-10-19T23:02:13.712Z,3.83
2022-10-19T23:04:40.497Z,4.00
2022-10-19T23:07:07.298Z,4.50
2022-10-19T23:09:34.056Z,4.60
2022-10-19T23:12:00.779Z,4.10
2022-10-19T23:14:27.574Z,4.20
2022-10-19T23:16:54.298Z,4.00
2022-10-19T23:19:23.300Z,4.57
2022-10-19T23:21:52.204Z,4.50
2022-10-19T23:24:23.667Z,4.83
2022-10-19T23:26:50.398Z,4.63
2022-10-19T23:29:19.719Z,4.60
2022-10-19T23:31:49.273Z,5.03
2022-10-19T23:34:18.397Z,5.07
2022-10-19T23:36:45.246Z,5.27
2022-10-19T23:39:12.021Z,5.17
2022-10-19T23:41:41.381Z,4.77
2022-10-19T23:44:09.209Z,5.13
2022-10-19T23:46:38.351Z,5.00
2022-10-19T23:49:07.666Z,5.03
2022-10-19T23:51:34.424Z,5.03
2022-10-19T23:54:01.218Z,5.00
2022-10-19T23:56:28.950Z,5.50
2022-10-19T23:58:56.073Z,4.80
